sensor_id;sensor_type;location;lat;lon;timestamp;P1;durP1;ratioP1;P2;durP2;ratioP2
16137;SDS011;8174;43.550;5.206;2022-09-09T00:00:59;3.33;;;1.70;;
16137;SDS011;8174;43.550;5.206;2022-09-09T00:03:31;3.58;;;1.50;;
16137;SDS011;8174;43.550;5.206;2022-09-09T00:06:02;4.30;;;1.52;;
16137;SDS011;8174;43.550;5.206;2022-09-09T00:08:35;3.30;;;1.50;;
16137;SDS011;8174;43.550;5.206;2022-09-09T00:11:07;2.00;;;1.33;;
16137;SDS011;8174;43.550;5.206;2022-09-09T00:13:38;3.97;;;1.60;;
16137;SDS011;8174;43.550;5.206;2022-09-09T00:16:10;5.43;;;1.77;;
16137;SDS011;8174;43.550;5.206;2022-09-09T00:18:46;2.65;;;1.40;;
16137;SDS011;8174;43.550;5.206;2022-09-09T00:21:17;6.97;;;1.92;;
16137;SDS011;8174;43.550;5.206;2022-09-09T00:23:46;3.28;;;1.58;;
16137;SDS011;8174;43.550;5.206;2022-09-09T00:26:16;6.13;;;1.77;;
16137;SDS011;8174;43.550;5.206;2022-09-09T00:28:46;4.20;;;1.55;;
16137;SDS011;8174;43.550;5.206;2022-09-09T00:31:18;3.50;;;1.50;;
16137;SDS011;8174;43.550;5.206;2022-09-09T00:33:47;6.63;;;1.90;;
16137;SDS011;8174;43.550;5.206;2022-09-09T00:36:17;4.05;;;1.90;;
16137;SDS011;8174;43.550;5.206;2022-09-09T00:38:48;3.88;;;1.40;;
16137;SDS011;8174;43.550;5.206;2022-09-09T00:41:18;4.20;;;1.95;;
16137;SDS011;8174;43.550;5.206;2022-09-09T00:43:53;5.65;;;1.75;;
16137;SDS011;8174;43.550;5.206;2022-09-09T00:49:13;6.03;;;2.00;;
16137;SDS011;8174;43.550;5.206;2022-09-09T00:51:45;4.20;;;2.00;;
16137;SDS011;8174;43.550;5.206;2022-09-09T00:54:19;3.97;;;1.65;;
16137;SDS011;8174;43.550;5.206;2022-09-09T00:56:51;6.22;;;1.73;;
16137;SDS011;8174;43.550;5.206;2022-09-09T00:59:24;4.80;;;1.90;;
16137;SDS011;8174;43.550;5.206;2022-09-09T01:01:55;4.80;;;2.13;;
16137;SDS011;8174;43.550;5.206;2022-09-09T01:04:26;3.00;;;1.83;;
16137;SDS011;8174;43.550;5.206;2022-09-09T01:06:59;8.57;;;1.90;;
16137;SDS011;8174;43.550;5.206;2022-09-09T01:09:29;3.15;;;1.70;;
16137;SDS011;8174;43.550;5.206;2022-09-09T01:12:01;3.28;;;1.80;;
16137;SDS011;8174;43.550;5.206;2022-09-09T01:14:37;5.38;;;1.77;;
16137;SDS011;8174;43.550;5.206;2022-09-09T01:17:08;6.07;;;1.70;;
16137;SDS011;8174;43.550;5.206;2022-09-09T01:19:44;3.78;;;1.63;;
16137;SDS011;8174;43.550;5.206;2022-09-09T01:22:14;4.60;;;1.80;;
16137;SDS011;8174;43.550;5.206;2022-09-09T01:24:45;3.70;;;1.95;;
16137;SDS011;8174;43.550;5.206;2022-09-09T01:27:21;5.38;;;1.70;;
16137;SDS011;8174;43.550;5.206;2022-09-09T01:29:50;4.63;;;1.80;;
16137;SDS011;8174;43.550;5.206;2022-09-09T01:32:37;3.00;;;1.70;;
16137;SDS011;8174;43.550;5.206;2022-09-09T01:35:06;5.10;;;2.00;;
16137;SDS011;8174;43.550;5.206;2022-09-09T01:37:35;3.50;;;2.00;;
16137;SDS011;8174;43.550;5.206;2022-09-09T01:40:03;5.45;;;1.88;;
16137;SDS011;8174;43.550;5.206;2022-09-09T01:42:32;5.20;;;1.85;;
16137;SDS011;8174;43.550;5.206;2022-09-09T01:45:01;5.65;;;2.00;;
16137;SDS011;8174;43.550;5.206;2022-09-09T01:47:29;5.22;;;2.05;;
16137;SDS011;8174;43.550;5.206;2022-09-09T01:55:29;5.55;;;2.35;;
16137;SDS011;8174;43.550;5.206;2022-09-09T01:58:01;6.25;;;2.15;;
16137;SDS011;8174;43.550;5.206;2022-09-09T02:00:33;6.07;;;2.42;;
16137;SDS011;8174;43.550;5.206;2022-09-09T02:03:05;5.00;;;2.30;;
16137;SDS011;8174;43.550;5.206;2022-09-09T02:05:37;4.45;;;2.40;;
16137;SDS011;8174;43.550;5.206;2022-09-09T02:08:06;5.97;;;2.42;;
16137;SDS011;8174;43.550;5.206;2022-09-09T02:10:37;7.95;;;2.30;;
16137;SDS011;8174;43.550;5.206;2022-09-09T02:13:09;4.28;;;2.10;;
16137;SDS011;8174;43.550;5.206;2022-09-09T02:15:39;8.18;;;2.45;;
16137;SDS011;8174;43.550;5.206;2022-09-09T02:18:10;6.18;;;2.20;;
16137;SDS011;8174;43.550;5.206;2022-09-09T02:20:39;4.05;;;2.22;;
16137;SDS011;8174;43.550;5.206;2022-09-09T02:23:07;5.43;;;2.55;;
16137;SDS011;8174;43.550;5.206;2022-09-09T02:25:36;8.25;;;2.50;;
16137;SDS011;8174;43.550;5.206;2022-09-09T02:28:04;7.70;;;2.72;;
16137;SDS011;8174;43.550;5.206;2022-09-09T02:30:34;5.70;;;2.22;;
16137;SDS011;8174;43.550;5.206;2022-09-09T02:33:03;7.45;;;2.50;;
16137;SDS011;8174;43.550;5.206;2022-09-09T02:35:32;5.43;;;2.50;;
16137;SDS011;8174;43.550;5.206;2022-09-09T02:38:04;4.60;;;2.60;;
16137;SDS011;8174;43.550;5.206;2022-09-09T02:40:33;7.05;;;2.70;;
16137;SDS011;8174;43.550;5.206;2022-09-09T02:43:00;3.78;;;2.30;;
16137;SDS011;8174;43.550;5.206;2022-09-09T02:45:38;7.70;;;2.50;;
16137;SDS011;8174;43.550;5.206;2022-09-09T02:48:13;5.30;;;2.60;;
16137;SDS011;8174;43.550;5.206;2022-09-09T02:50:43;7.28;;;2.63;;
16137;SDS011;8174;43.550;5.206;2022-09-09T02:53:15;6.38;;;2.30;;
16137;SDS011;8174;43.550;5.206;2022-09-09T02:55:45;7.10;;;2.50;;
16137;SDS011;8174;43.550;5.206;2022-09-09T02:58:14;8.73;;;2.80;;
16137;SDS011;8174;43.550;5.206;2022-09-09T03:00:43;4.78;;;2.78;;
16137;SDS011;8174;43.550;5.206;2022-09-09T03:03:12;7.05;;;3.05;;
16137;SDS011;8174;43.550;5.206;2022-09-09T03:05:41;17.30;;;3.92;;
16137;SDS011;8174;43.550;5.206;2022-09-09T03:08:09;12.05;;;3.35;;
16137;SDS011;8174;43.550;5.206;2022-09-09T03:10:38;6.38;;;3.03;;
16137;SDS011;8174;43.550;5.206;2022-09-09T03:13:06;5.50;;;2.65;;
16137;SDS011;8174;43.550;5.206;2022-09-09T03:15:34;8.52;;;2.90;;
16137;SDS011;8174;43.550;5.206;2022-09-09T03:18:02;5.75;;;2.80;;
16137;SDS011;8174;43.550;5.206;2022-09-09T03:20:31;11.27;;;3.17;;
16137;SDS011;8174;43.550;5.206;2022-09-09T03:22:59;10.20;;;3.00;;
16137;SDS011;8174;43.550;5.206;2022-09-09T03:25:27;6.32;;;3.05;;
16137;SDS011;8174;43.550;5.206;2022-09-09T03:27:55;7.22;;;3.47;;
16137;SDS011;8174;43.550;5.206;2022-09-09T03:30:24;6.75;;;3.00;;
16137;SDS011;8174;43.550;5.206;2022-09-09T03:32:51;6.68;;;3.20;;
16137;SDS011;8174;43.550;5.206;2022-09-09T03:35:20;8.23;;;2.22;;
16137;SDS011;8174;43.550;5.206;2022-09-09T03:37:49;6.05;;;2.38;;
16137;SDS011;8174;43.550;5.206;2022-09-09T03:40:17;3.15;;;1.65;;
16137;SDS011;8174;43.550;5.206;2022-09-09T03:42:45;1.95;;;1.50;;
16137;SDS011;8174;43.550;5.206;2022-09-09T03:45:13;4.85;;;1.88;;
16137;SDS011;8174;43.550;5.206;2022-09-09T03:47:41;3.50;;;1.60;;
16137;SDS011;8174;43.550;5.206;2022-09-09T03:50:09;3.15;;;1.42;;
16137;SDS011;8174;43.550;5.206;2022-09-09T03:52:36;2.80;;;1.40;;
16137;SDS011;8174;43.550;5.206;2022-09-09T03:55:06;4.22;;;1.50;;
16137;SDS011;8174;43.550;5.206;2022-09-09T03:57:34;2.58;;;1.30;;
16137;SDS011;8174;43.550;5.206;2022-09-09T04:00:02;5.40;;;1.50;;
16137;SDS011;8174;43.550;5.206;2022-09-09T04:02:30;3.80;;;1.35;;
16137;SDS011;8174;43.550;5.206;2022-09-09T04:04:58;5.28;;;1.48;;
16137;SDS011;8174;43.550;5.206;2022-09-09T04:07:26;2.65;;;1.30;;
16137;SDS011;8174;43.550;5.206;2022-09-09T04:09:54;4.47;;;1.60;;
16137;SDS011;8174;43.550;5.206;2022-09-09T04:12:23;4.35;;;1.20;;
16137;SDS011;8174;43.550;5.206;2022-09-09T04:14:51;5.28;;;1.50;;
16137;SDS011;8174;43.550;5.206;2022-09-09T04:17:18;5.38;;;1.30;;
16137;SDS011;8174;43.550;5.206;2022-09-09T04:19:46;2.70;;;1.27;;
16137;SDS011;8174;43.550;5.206;2022-09-09T04:22:13;3.58;;;1.42;;
16137;SDS011;8174;43.550;5.206;2022-09-09T04:24:41;6.07;;;1.63;;
16137;SDS011;8174;43.550;5.206;2022-09-09T04:27:09;4.28;;;1.50;;
16137;SDS011;8174;43.550;5.206;2022-09-09T04:29:38;4.57;;;1.35;;
16137;SDS011;8174;43.550;5.206;2022-09-09T04:32:06;3.88;;;1.30;;
16137;SDS011;8174;43.550;5.206;2022-09-09T04:34:33;4.07;;;1.60;;
16137;SDS011;8174;43.550;5.206;2022-09-09T04:37:01;7.22;;;1.70;;
16137;SDS011;8174;43.550;5.206;2022-09-09T04:39:29;7.15;;;1.80;;
16137;SDS011;8174;43.550;5.206;2022-09-09T04:41:56;5.40;;;1.60;;
16137;SDS011;8174;43.550;5.206;2022-09-09T04:44:24;5.88;;;1.83;;
16137;SDS011;8174;43.550;5.206;2022-09-09T04:46:53;6.03;;;2.20;;
16137;SDS011;8174;43.550;5.206;2022-09-09T04:49:21;5.30;;;1.95;;
16137;SDS011;8174;43.550;5.206;2022-09-09T04:51:49;9.63;;;2.15;;
16137;SDS011;8174;43.550;5.206;2022-09-09T04:54:17;7.35;;;2.00;;
16137;SDS011;8174;43.550;5.206;2022-09-09T04:56:44;5.55;;;2.20;;
16137;SDS011;8174;43.550;5.206;2022-09-09T04:59:12;6.22;;;1.92;;
16137;SDS011;8174;43.550;5.206;2022-09-09T05:01:39;4.82;;;2.28;;
16137;SDS011;8174;43.550;5.206;2022-09-09T05:04:09;12.57;;;2.40;;
16137;SDS011;8174;43.550;5.206;2022-09-09T05:06:37;5.72;;;2.05;;
16137;SDS011;8174;43.550;5.206;2022-09-09T05:09:05;7.38;;;2.35;;
16137;SDS011;8174;43.550;5.206;2022-09-09T05:11:33;11.15;;;2.92;;
16137;SDS011;8174;43.550;5.206;2022-09-09T05:14:02;15.30;;;2.88;;
16137;SDS011;8174;43.550;5.206;2022-09-09T05:16:30;17.88;;;3.13;;
16137;SDS011;8174;43.550;5.206;2022-09-09T05:18:57;16.08;;;3.22;;
16137;SDS011;8174;43.550;5.206;2022-09-09T05:21:26;16.02;;;3.33;;
16137;SDS011;8174;43.550;5.206;2022-09-09T05:23:55;7.10;;;2.28;;
16137;SDS011;8174;43.550;5.206;2022-09-09T05:26:23;12.02;;;2.90;;
16137;SDS011;8174;43.550;5.206;2022-09-09T05:28:51;6.65;;;1.88;;
16137;SDS011;8174;43.550;5.206;2022-09-09T05:31:18;5.32;;;1.92;;
16137;SDS011;8174;43.550;5.206;2022-09-09T05:33:46;4.30;;;1.40;;
16137;SDS011;8174;43.550;5.206;2022-09-09T05:36:15;4.75;;;1.50;;
16137;SDS011;8174;43.550;5.206;2022-09-09T05:38:44;5.18;;;1.77;;
16137;SDS011;8174;43.550;5.206;2022-09-09T05:41:12;5.20;;;1.65;;
16137;SDS011;8174;43.550;5.206;2022-09-09T05:43:41;4.45;;;1.50;;
16137;SDS011;8174;43.550;5.206;2022-09-09T05:46:10;4.90;;;1.52;;
16137;SDS011;8174;43.550;5.206;2022-09-09T05:48:38;11.68;;;1.90;;
16137;SDS011;8174;43.550;5.206;2022-09-09T05:51:09;9.40;;;2.38;;
16137;SDS011;8174;43.550;5.206;2022-09-09T05:53:40;5.60;;;2.17;;
16137;SDS011;8174;43.550;5.206;2022-09-09T05:56:10;7.47;;;1.85;;
16137;SDS011;8174;43.550;5.206;2022-09-09T05:58:39;13.18;;;1.90;;
16137;SDS011;8174;43.550;5.206;2022-09-09T06:01:09;7.63;;;2.25;;
16137;SDS011;8174;43.550;5.206;2022-09-09T06:03:39;8.82;;;2.25;;
16137;SDS011;8174;43.550;5.206;2022-09-09T06:06:08;5.85;;;1.63;;
16137;SDS011;8174;43.550;5.206;2022-09-09T06:08:37;4.05;;;1.65;;
16137;SDS011;8174;43.550;5.206;2022-09-09T06:11:05;6.28;;;1.80;;
16137;SDS011;8174;43.550;5.206;2022-09-09T06:13:35;6.63;;;2.00;;
16137;SDS011;8174;43.550;5.206;2022-09-09T06:16:04;9.20;;;1.90;;
16137;SDS011;8174;43.550;5.206;2022-09-09T06:18:32;8.88;;;1.75;;
16137;SDS011;8174;43.550;5.206;2022-09-09T06:21:00;3.30;;;1.60;;
16137;SDS011;8174;43.550;5.206;2022-09-09T06:23:29;5.95;;;1.50;;
16137;SDS011;8174;43.550;5.206;2022-09-09T06:26:00;8.55;;;1.70;;
16137;SDS011;8174;43.550;5.206;2022-09-09T06:28:28;6.57;;;1.40;;
16137;SDS011;8174;43.550;5.206;2022-09-09T06:31:00;7.00;;;1.90;;
16137;SDS011;8174;43.550;5.206;2022-09-09T06:33:30;6.43;;;1.70;;
16137;SDS011;8174;43.550;5.206;2022-09-09T06:36:00;3.88;;;1.70;;
16137;SDS011;8174;43.550;5.206;2022-09-09T06:38:28;5.93;;;2.20;;
16137;SDS011;8174;43.550;5.206;2022-09-09T06:40:57;5.50;;;1.80;;
16137;SDS011;8174;43.550;5.206;2022-09-09T06:43:25;11.82;;;2.10;;
16137;SDS011;8174;43.550;5.206;2022-09-09T06:45:54;5.90;;;1.90;;
16137;SDS011;8174;43.550;5.206;2022-09-09T06:48:23;5.10;;;1.80;;
16137;SDS011;8174;43.550;5.206;2022-09-09T06:50:59;5.75;;;2.20;;
16137;SDS011;8174;43.550;5.206;2022-09-09T06:53:28;6.82;;;2.55;;
16137;SDS011;8174;43.550;5.206;2022-09-09T06:55:59;8.70;;;2.30;;
16137;SDS011;8174;43.550;5.206;2022-09-09T06:58:27;5.50;;;2.10;;
16137;SDS011;8174;43.550;5.206;2022-09-09T07:01:01;8.85;;;3.22;;
16137;SDS011;8174;43.550;5.206;2022-09-09T07:03:30;5.00;;;2.05;;
16137;SDS011;8174;43.550;5.206;2022-09-09T07:05:59;6.75;;;1.73;;
16137;SDS011;8174;43.550;5.206;2022-09-09T07:08:26;6.03;;;1.90;;
16137;SDS011;8174;43.550;5.206;2022-09-09T07:11:01;5.97;;;2.00;;
16137;SDS011;8174;43.550;5.206;2022-09-09T07:13:29;7.95;;;1.98;;
16137;SDS011;8174;43.550;5.206;2022-09-09T07:16:02;5.57;;;1.60;;
16137;SDS011;8174;43.550;5.206;2022-09-09T07:18:31;6.25;;;1.70;;
16137;SDS011;8174;43.550;5.206;2022-09-09T07:21:00;5.32;;;1.70;;
16137;SDS011;8174;43.550;5.206;2022-09-09T07:23:27;6.07;;;1.60;;
16137;SDS011;8174;43.550;5.206;2022-09-09T07:25:55;3.70;;;1.60;;
16137;SDS011;8174;43.550;5.206;2022-09-09T07:28:26;5.88;;;1.60;;
16137;SDS011;8174;43.550;5.206;2022-09-09T07:30:56;4.68;;;1.75;;
16137;SDS011;8174;43.550;5.206;2022-09-09T07:33:23;8.93;;;1.88;;
16137;SDS011;8174;43.550;5.206;2022-09-09T07:35:53;5.45;;;1.70;;
16137;SDS011;8174;43.550;5.206;2022-09-09T07:38:20;5.32;;;1.55;;
16137;SDS011;8174;43.550;5.206;2022-09-09T07:40:48;3.00;;;1.55;;
16137;SDS011;8174;43.550;5.206;2022-09-09T07:43:18;5.35;;;1.70;;
16137;SDS011;8174;43.550;5.206;2022-09-09T07:45:46;3.78;;;1.35;;
16137;SDS011;8174;43.550;5.206;2022-09-09T07:48:15;7.07;;;1.17;;
16137;SDS011;8174;43.550;5.206;2022-09-09T07:50:42;4.95;;;1.27;;
16137;SDS011;8174;43.550;5.206;2022-09-09T07:53:11;10.35;;;1.98;;
16137;SDS011;8174;43.550;5.206;2022-09-09T07:55:39;3.08;;;1.40;;
16137;SDS011;8174;43.550;5.206;2022-09-09T07:58:06;5.40;;;1.10;;
16137;SDS011;8174;43.550;5.206;2022-09-09T08:00:34;1.98;;;1.30;;
16137;SDS011;8174;43.550;5.206;2022-09-09T08:03:01;2.10;;;1.00;;
16137;SDS011;8174;43.550;5.206;2022-09-09T08:05:29;6.57;;;1.30;;
16137;SDS011;8174;43.550;5.206;2022-09-09T08:07:57;4.78;;;1.20;;
16137;SDS011;8174;43.550;5.206;2022-09-09T08:10:26;9.63;;;1.90;;
16137;SDS011;8174;43.550;5.206;2022-09-09T08:12:54;4.72;;;1.30;;
16137;SDS011;8174;43.550;5.206;2022-09-09T08:15:22;4.60;;;1.08;;
16137;SDS011;8174;43.550;5.206;2022-09-09T08:17:49;5.55;;;1.30;;
16137;SDS011;8174;43.550;5.206;2022-09-09T08:20:17;3.38;;;1.30;;
16137;SDS011;8174;43.550;5.206;2022-09-09T08:22:44;5.20;;;1.30;;
16137;SDS011;8174;43.550;5.206;2022-09-09T08:25:13;5.13;;;1.50;;
16137;SDS011;8174;43.550;5.206;2022-09-09T08:27:42;4.93;;;1.38;;
16137;SDS011;8174;43.550;5.206;2022-09-09T08:30:10;4.53;;;1.30;;
16137;SDS011;8174;43.550;5.206;2022-09-09T08:32:39;3.67;;;1.10;;
16137;SDS011;8174;43.550;5.206;2022-09-09T08:35:07;3.08;;;1.13;;
16137;SDS011;8174;43.550;5.206;2022-09-09T08:37:36;3.40;;;1.20;;
16137;SDS011;8174;43.550;5.206;2022-09-09T08:40:04;3.50;;;1.08;;
16137;SDS011;8174;43.550;5.206;2022-09-09T08:42:37;4.60;;;0.90;;
16137;SDS011;8174;43.550;5.206;2022-09-09T08:45:17;2.40;;;1.00;;
16137;SDS011;8174;43.550;5.206;2022-09-09T08:47:50;2.50;;;1.13;;
16137;SDS011;8174;43.550;5.206;2022-09-09T08:50:22;3.65;;;1.20;;
16137;SDS011;8174;43.550;5.206;2022-09-09T08:52:55;4.53;;;1.10;;
16137;SDS011;8174;43.550;5.206;2022-09-09T08:55:25;7.65;;;1.90;;
16137;SDS011;8174;43.550;5.206;2022-09-09T08:57:54;4.88;;;1.10;;
16137;SDS011;8174;43.550;5.206;2022-09-09T09:00:24;4.38;;;1.10;;
16137;SDS011;8174;43.550;5.206;2022-09-09T09:02:57;4.43;;;1.60;;
16137;SDS011;8174;43.550;5.206;2022-09-09T09:05:27;4.82;;;1.33;;
16137;SDS011;8174;43.550;5.206;2022-09-09T09:08:03;3.00;;;1.20;;
16137;SDS011;8174;43.550;5.206;2022-09-09T09:10:36;5.70;;;1.30;;
16137;SDS011;8174;43.550;5.206;2022-09-09T09:13:10;3.03;;;1.20;;
16137;SDS011;8174;43.550;5.206;2022-09-09T09:15:41;2.13;;;1.13;;
16137;SDS011;8174;43.550;5.206;2022-09-09T09:18:10;2.80;;;1.10;;
16137;SDS011;8174;43.550;5.206;2022-09-09T09:20:40;3.78;;;1.23;;
16137;SDS011;8174;43.550;5.206;2022-09-09T09:23:12;2.22;;;0.90;;
16137;SDS011;8174;43.550;5.206;2022-09-09T09:25:42;2.00;;;0.95;;
16137;SDS011;8174;43.550;5.206;2022-09-09T09:28:12;2.67;;;0.90;;
16137;SDS011;8174;43.550;5.206;2022-09-09T09:30:44;5.70;;;1.17;;
16137;SDS011;8174;43.550;5.206;2022-09-09T09:33:14;1.98;;;0.95;;
16137;SDS011;8174;43.550;5.206;2022-09-09T09:35:43;2.63;;;0.80;;
16137;SDS011;8174;43.550;5.206;2022-09-09T09:38:13;1.73;;;0.80;;
16137;SDS011;8174;43.550;5.206;2022-09-09T09:40:48;5.35;;;1.30;;
16137;SDS011;8174;43.550;5.206;2022-09-09T09:43:18;3.65;;;1.00;;
16137;SDS011;8174;43.550;5.206;2022-09-09T09:45:48;2.88;;;0.80;;
16137;SDS011;8174;43.550;5.206;2022-09-09T09:48:16;1.45;;;0.80;;
16137;SDS011;8174;43.550;5.206;2022-09-09T09:50:47;4.13;;;0.93;;
16137;SDS011;8174;43.550;5.206;2022-09-09T09:53:17;3.53;;;0.80;;
16137;SDS011;8174;43.550;5.206;2022-09-09T09:55:47;3.58;;;0.80;;
16137;SDS011;8174;43.550;5.206;2022-09-09T09:58:18;4.03;;;1.15;;
16137;SDS011;8174;43.550;5.206;2022-09-09T10:00:51;4.88;;;1.10;;
16137;SDS011;8174;43.550;5.206;2022-09-09T10:03:23;3.00;;;1.00;;
16137;SDS011;8174;43.550;5.206;2022-09-09T10:05:52;3.72;;;0.90;;
16137;SDS011;8174;43.550;5.206;2022-09-09T10:08:21;3.78;;;1.00;;
16137;SDS011;8174;43.550;5.206;2022-09-09T10:10:55;1.45;;;0.70;;
16137;SDS011;8174;43.550;5.206;2022-09-09T10:13:25;1.45;;;0.80;;
16137;SDS011;8174;43.550;5.206;2022-09-09T10:16:01;1.88;;;0.80;;
16137;SDS011;8174;43.550;5.206;2022-09-09T10:18:39;8.95;;;0.93;;
16137;SDS011;8174;43.550;5.206;2022-09-09T10:21:12;3.65;;;1.27;;
16137;SDS011;8174;43.550;5.206;2022-09-09T10:23:53;2.67;;;0.80;;
16137;SDS011;8174;43.550;5.206;2022-09-09T10:26:29;1.00;;;0.70;;
16137;SDS011;8174;43.550;5.206;2022-09-09T10:29:10;1.52;;;0.65;;
16137;SDS011;8174;43.550;5.206;2022-09-09T10:31:49;2.25;;;1.00;;
16137;SDS011;8174;43.550;5.206;2022-09-09T10:34:25;2.50;;;0.85;;
16137;SDS011;8174;43.550;5.206;2022-09-09T10:37:00;2.40;;;0.80;;
16137;SDS011;8174;43.550;5.206;2022-09-09T10:39:32;1.77;;;0.77;;
16137;SDS011;8174;43.550;5.206;2022-09-09T10:42:06;1.45;;;0.68;;
16137;SDS011;8174;43.550;5.206;2022-09-09T10:44:45;3.17;;;0.80;;
16137;SDS011;8174;43.550;5.206;2022-09-09T10:47:28;3.20;;;0.85;;
16137;SDS011;8174;43.550;5.206;2022-09-09T10:50:05;1.77;;;0.77;;
16137;SDS011;8174;43.550;5.206;2022-09-09T10:52:40;2.47;;;0.80;;
16137;SDS011;8174;43.550;5.206;2022-09-09T10:55:13;2.90;;;0.95;;
16137;SDS011;8174;43.550;5.206;2022-09-09T10:57:42;0.73;;;0.65;;
16137;SDS011;8174;43.550;5.206;2022-09-09T11:00:15;2.20;;;0.80;;
16137;SDS011;8174;43.550;5.206;2022-09-09T11:02:46;5.03;;;1.23;;
16137;SDS011;8174;43.550;5.206;2022-09-09T11:05:16;2.83;;;0.80;;
16137;SDS011;8174;43.550;5.206;2022-09-09T11:07:46;3.47;;;0.90;;
16137;SDS011;8174;43.550;5.206;2022-09-09T11:10:17;2.58;;;1.00;;
16137;SDS011;8174;43.550;5.206;2022-09-09T11:12:48;5.65;;;1.00;;
16137;SDS011;8174;43.550;5.206;2022-09-09T11:15:20;3.65;;;0.90;;
16137;SDS011;8174;43.550;5.206;2022-09-09T11:17:50;2.80;;;0.80;;
16137;SDS011;8174;43.550;5.206;2022-09-09T11:20:22;1.45;;;0.80;;
16137;SDS011;8174;43.550;5.206;2022-09-09T11:22:51;4.05;;;1.25;;
16137;SDS011;8174;43.550;5.206;2022-09-09T11:25:20;2.10;;;0.90;;
16137;SDS011;8174;43.550;5.206;2022-09-09T11:27:58;5.13;;;1.30;;
16137;SDS011;8174;43.550;5.206;2022-09-09T11:30:31;5.35;;;1.10;;
16137;SDS011;8174;43.550;5.206;2022-09-09T11:33:16;4.97;;;1.10;;
16137;SDS011;8174;43.550;5.206;2022-09-09T11:35:50;2.15;;;1.10;;
16137;SDS011;8174;43.550;5.206;2022-09-09T11:38:25;1.50;;;0.88;;
16137;SDS011;8174;43.550;5.206;2022-09-09T11:40:54;5.60;;;1.05;;
16137;SDS011;8174;43.550;5.206;2022-09-09T11:43:23;3.30;;;1.10;;
16137;SDS011;8174;43.550;5.206;2022-09-09T11:45:54;4.20;;;1.20;;
16137;SDS011;8174;43.550;5.206;2022-09-09T11:48:28;4.57;;;1.08;;
16137;SDS011;8174;43.550;5.206;2022-09-09T11:50:57;2.20;;;0.90;;
16137;SDS011;8174;43.550;5.206;2022-09-09T11:53:25;2.58;;;0.70;;
16137;SDS011;8174;43.550;5.206;2022-09-09T11:56:00;6.72;;;1.23;;
16137;SDS011;8174;43.550;5.206;2022-09-09T11:58:36;3.83;;;0.90;;
16137;SDS011;8174;43.550;5.206;2022-09-09T12:04:05;3.60;;;0.68;;
16137;SDS011;8174;43.550;5.206;2022-09-09T12:06:41;2.90;;;1.27;;
16137;SDS011;8174;43.550;5.206;2022-09-09T12:09:15;4.85;;;1.17;;
16137;SDS011;8174;43.550;5.206;2022-09-09T12:11:44;2.65;;;0.90;;
16137;SDS011;8174;43.550;5.206;2022-09-09T12:14:19;1.85;;;1.00;;
16137;SDS011;8174;43.550;5.206;2022-09-09T12:16:49;0.90;;;0.75;;
16137;SDS011;8174;43.550;5.206;2022-09-09T12:19:20;3.25;;;1.00;;
16137;SDS011;8174;43.550;5.206;2022-09-09T12:21:51;1.50;;;0.88;;
16137;SDS011;8174;43.550;5.206;2022-09-09T12:24:24;1.50;;;1.02;;
16137;SDS011;8174;43.550;5.206;2022-09-09T12:26:56;2.72;;;1.30;;
16137;SDS011;8174;43.550;5.206;2022-09-09T12:29:27;4.95;;;1.00;;
16137;SDS011;8174;43.550;5.206;2022-09-09T12:32:00;4.10;;;0.80;;
16137;SDS011;8174;43.550;5.206;2022-09-09T12:34:33;4.13;;;1.00;;
16137;SDS011;8174;43.550;5.206;2022-09-09T12:37:03;3.10;;;1.10;;
16137;SDS011;8174;43.550;5.206;2022-09-09T12:39:33;3.28;;;1.20;;
16137;SDS011;8174;43.550;5.206;2022-09-09T12:42:02;3.40;;;1.17;;
16137;SDS011;8174;43.550;5.206;2022-09-09T12:44:30;2.80;;;0.95;;
16137;SDS011;8174;43.550;5.206;2022-09-09T12:46:59;3.60;;;1.00;;
16137;SDS011;8174;43.550;5.206;2022-09-09T12:49:28;2.38;;;0.93;;
16137;SDS011;8174;43.550;5.206;2022-09-09T12:52:02;2.55;;;1.10;;
16137;SDS011;8174;43.550;5.206;2022-09-09T12:54:31;3.85;;;1.05;;
16137;SDS011;8174;43.550;5.206;2022-09-09T12:56:59;4.32;;;1.17;;
16137;SDS011;8174;43.550;5.206;2022-09-09T12:59:35;3.20;;;1.25;;
16137;SDS011;8174;43.550;5.206;2022-09-09T13:02:11;1.83;;;0.93;;
16137;SDS011;8174;43.550;5.206;2022-09-09T13:04:39;3.42;;;1.15;;
16137;SDS011;8174;43.550;5.206;2022-09-09T13:07:08;2.00;;;1.10;;
16137;SDS011;8174;43.550;5.206;2022-09-09T13:09:37;3.83;;;1.23;;
16137;SDS011;8174;43.550;5.206;2022-09-09T13:12:05;2.47;;;1.10;;
16137;SDS011;8174;43.550;5.206;2022-09-09T13:14:38;1.58;;;0.90;;
16137;SDS011;8174;43.550;5.206;2022-09-09T13:17:06;3.10;;;1.00;;
16137;SDS011;8174;43.550;5.206;2022-09-09T13:19:43;3.45;;;0.80;;
16137;SDS011;8174;43.550;5.206;2022-09-09T13:22:13;2.85;;;1.00;;
16137;SDS011;8174;43.550;5.206;2022-09-09T13:24:42;3.33;;;0.90;;
16137;SDS011;8174;43.550;5.206;2022-09-09T13:27:23;3.05;;;1.27;;
16137;SDS011;8174;43.550;5.206;2022-09-09T13:29:52;3.15;;;0.90;;
16137;SDS011;8174;43.550;5.206;2022-09-09T13:32:22;5.13;;;1.35;;
16137;SDS011;8174;43.550;5.206;2022-09-09T13:34:52;2.47;;;1.08;;
16137;SDS011;8174;43.550;5.206;2022-09-09T13:37:22;2.45;;;0.90;;
16137;SDS011;8174;43.550;5.206;2022-09-09T13:39:51;3.90;;;1.00;;
16137;SDS011;8174;43.550;5.206;2022-09-09T13:42:24;2.20;;;1.00;;
16137;SDS011;8174;43.550;5.206;2022-09-09T13:44:52;3.70;;;0.93;;
16137;SDS011;8174;43.550;5.206;2022-09-09T13:47:21;4.72;;;1.25;;
16137;SDS011;8174;43.550;5.206;2022-09-09T13:49:49;1.85;;;1.00;;
16137;SDS011;8174;43.550;5.206;2022-09-09T13:52:17;2.05;;;1.00;;
16137;SDS011;8174;43.550;5.206;2022-09-09T13:54:49;4.07;;;1.10;;
16137;SDS011;8174;43.550;5.206;2022-09-09T13:57:18;1.75;;;1.10;;
16137;SDS011;8174;43.550;5.206;2022-09-09T13:59:48;3.65;;;0.98;;
16137;SDS011;8174;43.550;5.206;2022-09-09T14:02:17;1.45;;;1.00;;
16137;SDS011;8174;43.550;5.206;2022-09-09T14:04:46;2.13;;;1.20;;
16137;SDS011;8174;43.550;5.206;2022-09-09T14:07:16;7.65;;;1.58;;
16137;SDS011;8174;43.550;5.206;2022-09-09T14:09:44;1.55;;;0.90;;
16137;SDS011;8174;43.550;5.206;2022-09-09T14:12:19;1.27;;;1.02;;
16137;SDS011;8174;43.550;5.206;2022-09-09T14:14:47;3.63;;;1.20;;
16137;SDS011;8174;43.550;5.206;2022-09-09T14:17:14;2.58;;;1.40;;
16137;SDS011;8174;43.550;5.206;2022-09-09T14:19:43;5.40;;;1.15;;
16137;SDS011;8174;43.550;5.206;2022-09-09T14:22:11;4.30;;;1.20;;
16137;SDS011;8174;43.550;5.206;2022-09-09T14:24:38;2.70;;;1.15;;
16137;SDS011;8174;43.550;5.206;2022-09-09T14:27:06;1.95;;;1.00;;
16137;SDS011;8174;43.550;5.206;2022-09-09T14:29:35;5.70;;;1.15;;
16137;SDS011;8174;43.550;5.206;2022-09-09T14:32:03;2.45;;;0.95;;
16137;SDS011;8174;43.550;5.206;2022-09-09T14:34:31;4.80;;;1.08;;
16137;SDS011;8174;43.550;5.206;2022-09-09T14:36:58;2.92;;;1.08;;
16137;SDS011;8174;43.550;5.206;2022-09-09T14:39:31;2.10;;;1.02;;
16137;SDS011;8174;43.550;5.206;2022-09-09T14:41:59;2.78;;;1.00;;
16137;SDS011;8174;43.550;5.206;2022-09-09T14:44:27;3.17;;;1.10;;
16137;SDS011;8174;43.550;5.206;2022-09-09T14:46:57;6.63;;;1.10;;
16137;SDS011;8174;43.550;5.206;2022-09-09T14:49:24;4.35;;;1.10;;
16137;SDS011;8174;43.550;5.206;2022-09-09T14:51:55;3.60;;;1.02;;
16137;SDS011;8174;43.550;5.206;2022-09-09T14:54:24;6.05;;;1.10;;
16137;SDS011;8174;43.550;5.206;2022-09-09T14:56:53;1.90;;;1.08;;
16137;SDS011;8174;43.550;5.206;2022-09-09T14:59:22;2.42;;;1.05;;
16137;SDS011;8174;43.550;5.206;2022-09-09T15:01:49;2.50;;;1.00;;
16137;SDS011;8174;43.550;5.206;2022-09-09T15:04:19;2.55;;;1.00;;
16137;SDS011;8174;43.550;5.206;2022-09-09T15:06:47;4.22;;;1.13;;
16137;SDS011;8174;43.550;5.206;2022-09-09T15:09:17;2.65;;;0.90;;
16137;SDS011;8174;43.550;5.206;2022-09-09T15:11:47;3.95;;;1.27;;
16137;SDS011;8174;43.550;5.206;2022-09-09T15:14:15;5.65;;;1.30;;
16137;SDS011;8174;43.550;5.206;2022-09-09T15:16:43;3.00;;;1.30;;
16137;SDS011;8174;43.550;5.206;2022-09-09T15:19:10;3.75;;;1.10;;
16137;SDS011;8174;43.550;5.206;2022-09-09T15:21:39;3.33;;;1.02;;
16137;SDS011;8174;43.550;5.206;2022-09-09T15:24:07;2.40;;;1.00;;
16137;SDS011;8174;43.550;5.206;2022-09-09T15:26:35;3.20;;;1.00;;
16137;SDS011;8174;43.550;5.206;2022-09-09T15:29:05;1.70;;;1.08;;